sensor_id;sensor_type;location;lat;lon;timestamp;pressure;altitude;pressure_sealevel;temperature;humidity
12969;BME280;6549;53.128;8.182;2022-10-20T00:02:15;102032.91;;;6.56;100.00
12969;BME280;6549;53.128;8.182;2022-10-20T00:05:15;102029.34;;;6.64;100.00
12969;BME280;6549;53.128;8.182;2022-10-20T00:08:16;102032.72;;;6.61;100.00
12969;BME280;6549;53.128;8.182;2022-10-20T00:11:18;102036.47;;;6.48;100.00
12969;BME280;6549;53.128;8.182;2022-10-20T00:14:19;102038.22;;;6.53;100.00
12969;BME280;6549;53.128;8.182;2022-10-20T00:17:19;102029.88;;;6.49;100.00
12969;BME280;6549;53.128;8.182;2022-10-20T00:20:19;102022.34;;;6.46;100.00
12969;BME280;6549;53.128;8.182;2022-10-20T00:23:20;102010.19;;;6.35;100.00
12969;BME280;6549;53.128;8.182;2022-10-20T00:26:25;102012.56;;;6.45;100.00
12969;BME280;6549;53.128;8.182;2022-10-20T00:29:26;102013.19;;;6.42;100.00
12969;BME280;6549;53.128;8.182;2022-10-20T00:32:26;102005.47;;;6.53;100.00
12969;BME280;6549;53.128;8.182;2022-10-20T00:35:29;101997.47;;;6.39;100.00
12969;BME280;6549;53.128;8.182;2022-10-20T00:38:30;101986.72;;;6.34;100.00
12969;BME280;6549;53.128;8.182;2022-10-20T00:41:31;101987.09;;;6.24;100.00
12969;BME280;6549;53.128;8.182;2022-10-20T00:44:53;101991.44;;;6.16;100.00
12969;BME280;6549;53.128;8.182;2022-10-20T00:47:58;101990.47;;;6.21;100.00
12969;BME280;6549;53.128;8.182;2022-10-20T00:51:00;101981.09;;;6.39;100.00
12969;BME280;6549;53.128;8.182;2022-10-20T00:54:10;101969.06;;;6.40;100.00
12969;BME280;6549;53.128;8.182;2022-10-20T00:57:11;101967.16;;;6.32;100.00
12969;BME280;6549;53.128;8.182;2022-10-20T01:00:13;101952.16;;;6.47;100.00
12969;BME280;6549;53.128;8.182;2022-10-20T01:03:22;101953.84;;;6.60;100.00
12969;BME280;6549;53.128;8.182;2022-10-20T01:06:23;101951.50;;;6.50;100.00
12969;BME280;6549;53.128;8.182;2022-10-20T01:09:24;101951.38;;;6.38;100.00
12969;BME280;6549;53.128;8.182;2022-10-20T01:12:38;101957.38;;;6.31;100.00
12969;BME280;6549;53.128;8.182;2022-10-20T01:22:23;101934.78;;;6.13;100.00
12969;BME280;6549;53.128;8.182;2022-10-20T01:26:41;101936.56;;;6.09;100.00
12969;BME280;6549;53.128;8.182;2022-10-20T01:35:52;101936.09;;;6.07;100.00
12969;BME280;6549;53.128;8.182;2022-10-20T01:42:03;101916.31;;;6.19;100.00
12969;BME280;6549;53.128;8.182;2022-10-20T01:45:05;101904.16;;;6.08;100.00
12969;BME280;6549;53.128;8.182;2022-10-20T01:48:08;101894.31;;;6.24;100.00
12969;BME280;6549;53.128;8.182;2022-10-20T01:51:09;101884.50;;;6.23;100.00
12969;BME280;6549;53.128;8.182;2022-10-20T01:54:24;101886.13;;;6.24;100.00
12969;BME280;6549;53.128;8.182;2022-10-20T01:57:45;101886.34;;;6.40;100.00
12969;BME280;6549;53.128;8.182;2022-10-20T02:00:51;101878.56;;;6.21;100.00
12969;BME280;6549;53.128;8.182;2022-10-20T02:03:59;101872.59;;;6.27;100.00
12969;BME280;6549;53.128;8.182;2022-10-20T02:07:08;101867.50;;;6.17;100.00
12969;BME280;6549;53.128;8.182;2022-10-20T02:10:18;101872.59;;;6.27;100.00
12969;BME280;6549;53.128;8.182;2022-10-20T02:13:19;101870.72;;;6.19;100.00
12969;BME280;6549;53.128;8.182;2022-10-20T02:16:28;101868.97;;;6.15;100.00
12969;BME280;6549;53.128;8.182;2022-10-20T02:19:34;101862.53;;;6.11;100.00
12969;BME280;6549;53.128;8.182;2022-10-20T02:22:36;101861.81;;;6.02;100.00
12969;BME280;6549;53.128;8.182;2022-10-20T02:25:38;101862.00;;;5.97;100.00
12969;BME280;6549;53.128;8.182;2022-10-20T02:28:42;101855.88;;;6.00;100.00
12969;BME280;6549;53.128;8.182;2022-10-20T02:31:45;101843.88;;;5.92;100.00
12969;BME280;6549;53.128;8.182;2022-10-20T02:34:46;101848.97;;;5.94;100.00
12969;BME280;6549;53.128;8.182;2022-10-20T02:37:46;101850.13;;;5.93;100.00
12969;BME280;6549;53.128;8.182;2022-10-20T02:40:47;101851.06;;;5.97;100.00
12969;BME280;6549;53.128;8.182;2022-10-20T02:43:47;101836.16;;;5.85;100.00
12969;BME280;6549;53.128;8.182;2022-10-20T02:46:47;101833.78;;;5.75;100.00
12969;BME280;6549;53.128;8.182;2022-10-20T02:49:48;101833.31;;;5.73;100.00
12969;BME280;6549;53.128;8.182;2022-10-20T02:52:48;101831.03;;;5.84;100.00
12969;BME280;6549;53.128;8.182;2022-10-20T02:55:48;101830.09;;;5.71;100.00
12969;BME280;6549;53.128;8.182;2022-10-20T02:58:49;101818.91;;;5.64;100.00
12969;BME280;6549;53.128;8.182;2022-10-20T03:01:49;101817.31;;;5.63;100.00
12969;BME280;6549;53.128;8.182;2022-10-20T03:04:51;101810.66;;;5.81;100.00
12969;BME280;6549;53.128;8.182;2022-10-20T03:07:52;101808.78;;;5.73;100.00
12969;BME280;6549;53.128;8.182;2022-10-20T03:10:52;101801.25;;;5.70;100.00
12969;BME280;6549;53.128;8.182;2022-10-20T03:13:52;101795.31;;;5.68;100.00
12969;BME280;6549;53.128;8.182;2022-10-20T03:16:53;101798.38;;;5.58;100.00
12969;BME280;6549;53.128;8.182;2022-10-20T03:19:53;101808.63;;;5.70;100.00
12969;BME280;6549;53.128;8.182;2022-10-20T03:22:53;101795.34;;;5.60;100.00
12969;BME280;6549;53.128;8.182;2022-10-20T03:26:03;101786.84;;;5.61;100.00
12969;BME280;6549;53.128;8.182;2022-10-20T03:29:04;101789.50;;;5.78;100.00
12969;BME280;6549;53.128;8.182;2022-10-20T03:32:04;101786.81;;;5.70;100.00
12969;BME280;6549;53.128;8.182;2022-10-20T03:35:05;101784.06;;;5.78;100.00
12969;BME280;6549;53.128;8.182;2022-10-20T03:38:05;101778.50;;;5.66;100.00
12969;BME280;6549;53.128;8.182;2022-10-20T03:41:05;101772.19;;;5.74;100.00
12969;BME280;6549;53.128;8.182;2022-10-20T03:44:06;101770.94;;;5.63;100.00
12969;BME280;6549;53.128;8.182;2022-10-20T03:47:06;101762.78;;;5.63;100.00
12969;BME280;6549;53.128;8.182;2022-10-20T03:50:07;101758.91;;;5.64;100.00
12969;BME280;6549;53.128;8.182;2022-10-20T03:53:14;101755.38;;;5.64;100.00
12969;BME280;6549;53.128;8.182;2022-10-20T03:56:17;101757.03;;;5.56;100.00
12969;BME280;6549;53.128;8.182;2022-10-20T03:59:18;101758.66;;;5.57;100.00
12969;BME280;6549;53.128;8.182;2022-10-20T04:02:35;101740.00;;;5.59;100.00
12969;BME280;6549;53.128;8.182;2022-10-20T04:05:36;101741.34;;;5.53;100.00
12969;BME280;6549;53.128;8.182;2022-10-20T04:08:36;101730.63;;;5.48;100.00
12969;BME280;6549;53.128;8.182;2022-10-20T04:11:37;101728.13;;;5.64;100.00
12969;BME280;6549;53.128;8.182;2022-10-20T04:14:37;101712.75;;;5.59;100.00
12969;BME280;6549;53.128;8.182;2022-10-20T04:17:37;101703.91;;;5.62;100.00
12969;BME280;6549;53.128;8.182;2022-10-20T04:20:38;101689.72;;;5.48;100.00
12969;BME280;6549;53.128;8.182;2022-10-20T04:23:38;101682.25;;;5.66;100.00
12969;BME280;6549;53.128;8.182;2022-10-20T04:26:38;101684.72;;;5.50;100.00
12969;BME280;6549;53.128;8.182;2022-10-20T04:29:39;101673.91;;;5.62;100.00
12969;BME280;6549;53.128;8.182;2022-10-20T04:32:39;101681.94;;;5.59;100.00
12969;BME280;6549;53.128;8.182;2022-10-20T04:35:39;101684.09;;;5.53;100.00
12969;BME280;6549;53.128;8.182;2022-10-20T04:38:40;101676.84;;;5.57;100.00
12969;BME280;6549;53.128;8.182;2022-10-20T04:41:41;101681.72;;;5.72;100.00
12969;BME280;6549;53.128;8.182;2022-10-20T04:44:41;101671.84;;;5.59;100.00
12969;BME280;6549;53.128;8.182;2022-10-20T04:47:41;101666.72;;;5.58;100.00
12969;BME280;6549;53.128;8.182;2022-10-20T04:50:42;101670.78;;;5.52;100.00
12969;BME280;6549;53.128;8.182;2022-10-20T04:53:42;101658.53;;;5.58;100.00
12969;BME280;6549;53.128;8.182;2022-10-20T04:56:42;101645.66;;;5.67;100.00
12969;BME280;6549;53.128;8.182;2022-10-20T04:59:43;101629.44;;;5.70;100.00
12969;BME280;6549;53.128;8.182;2022-10-20T05:02:43;101628.28;;;5.71;100.00
12969;BME280;6549;53.128;8.182;2022-10-20T05:05:47;101618.66;;;5.74;100.00
12969;BME280;6549;53.128;8.182;2022-10-20T05:08:49;101614.28;;;5.81;100.00
12969;BME280;6549;53.128;8.182;2022-10-20T05:11:50;101614.66;;;5.71;100.00
12969;BME280;6549;53.128;8.182;2022-10-20T05:14:52;101614.81;;;5.75;100.00
12969;BME280;6549;53.128;8.182;2022-10-20T05:17:52;101609.44;;;5.66;100.00
12969;BME280;6549;53.128;8.182;2022-10-20T05:20:53;101608.69;;;5.57;100.00
12969;BME280;6549;53.128;8.182;2022-10-20T05:23:55;101619.91;;;5.56;100.00
12969;BME280;6549;53.128;8.182;2022-10-20T05:26:56;101610.81;;;5.52;100.00
12969;BME280;6549;53.128;8.182;2022-10-20T05:29:56;101612.53;;;5.56;100.00
12969;BME280;6549;53.128;8.182;2022-10-20T05:32:57;101612.34;;;5.61;100.00
12969;BME280;6549;53.128;8.182;2022-10-20T05:35:57;101610.56;;;5.65;100.00
12969;BME280;6549;53.128;8.182;2022-10-20T05:38:58;101605.41;;;5.84;100.00
12969;BME280;6549;53.128;8.182;2022-10-20T05:41:58;101594.72;;;5.59;100.00
12969;BME280;6549;53.128;8.182;2022-10-20T05:44:58;101588.94;;;5.81;100.00
12969;BME280;6549;53.128;8.182;2022-10-20T05:47:59;101589.28;;;5.79;100.00
12969;BME280;6549;53.128;8.182;2022-10-20T05:51:11;101581.94;;;5.71;100.00
12969;BME280;6549;53.128;8.182;2022-10-20T05:54:12;101572.81;;;5.67;100.00
12969;BME280;6549;53.128;8.182;2022-10-20T05:57:13;101578.34;;;5.59;100.00
12969;BME280;6549;53.128;8.182;2022-10-20T06:00:13;101573.81;;;5.63;100.00
12969;BME280;6549;53.128;8.182;2022-10-20T06:03:15;101598.72;;;5.61;100.00
12969;BME280;6549;53.128;8.182;2022-10-20T06:06:16;101594.13;;;5.53;100.00
12969;BME280;6549;53.128;8.182;2022-10-20T06:09:17;101593.25;;;5.61;100.00
12969;BME280;6549;53.128;8.182;2022-10-20T06:12:18;101587.81;;;5.61;100.00
12969;BME280;6549;53.128;8.182;2022-10-20T06:15:18;101585.81;;;5.70;100.00
12969;BME280;6549;53.128;8.182;2022-10-20T06:18:18;101574.63;;;5.63;100.00
12969;BME280;6549;53.128;8.182;2022-10-20T06:21:21;101575.56;;;5.67;100.00
12969;BME280;6549;53.128;8.182;2022-10-20T06:24:22;101573.03;;;5.83;100.00
12969;BME280;6549;53.128;8.182;2022-10-20T06:27:22;101562.94;;;5.83;100.00
12969;BME280;6549;53.128;8.182;2022-10-20T06:30:22;101566.31;;;5.80;100.00
12969;BME280;6549;53.128;8.182;2022-10-20T06:33:23;101565.19;;;5.81;100.00
12969;BME280;6549;53.128;8.182;2022-10-20T06:36:24;101565.81;;;5.87;100.00
12969;BME280;6549;53.128;8.182;2022-10-20T06:39:25;101553.63;;;6.05;100.00
12969;BME280;6549;53.128;8.182;2022-10-20T06:42:25;101536.69;;;6.12;100.00
12969;BME280;6549;53.128;8.182;2022-10-20T06:45:27;101539.53;;;6.15;100.00
12969;BME280;6549;53.128;8.182;2022-10-20T06:48:28;101540.69;;;6.14;100.00
12969;BME280;6549;53.128;8.182;2022-10-20T06:51:29;101532.97;;;6.16;100.00
12969;BME280;6549;53.128;8.182;2022-10-20T06:54:29;101534.69;;;6.21;100.00
12969;BME280;6549;53.128;8.182;2022-10-20T06:57:30;101532.78;;;6.33;100.00
12969;BME280;6549;53.128;8.182;2022-10-20T07:00:31;101523.13;;;6.36;100.00
12969;BME280;6549;53.128;8.182;2022-10-20T07:03:33;101521.84;;;6.33;100.00
12969;BME280;6549;53.128;8.182;2022-10-20T07:06:37;101508.00;;;6.51;100.00
12969;BME280;6549;53.128;8.182;2022-10-20T07:09:37;101500.59;;;6.51;100.00
12969;BME280;6549;53.128;8.182;2022-10-20T07:12:38;101499.47;;;6.52;100.00
12969;BME280;6549;53.128;8.182;2022-10-20T07:15:38;101490.84;;;6.62;100.00
12969;BME280;6549;53.128;8.182;2022-10-20T07:18:39;101484.69;;;6.77;100.00
12969;BME280;6549;53.128;8.182;2022-10-20T07:21:39;101479.69;;;6.80;100.00
12969;BME280;6549;53.128;8.182;2022-10-20T07:24:39;101492.34;;;6.84;100.00
12969;BME280;6549;53.128;8.182;2022-10-20T07:27:43;101495.75;;;6.81;100.00
12969;BME280;6549;53.128;8.182;2022-10-20T07:30:43;101482.09;;;6.93;100.00
12969;BME280;6549;53.128;8.182;2022-10-20T07:33:44;101484.78;;;7.05;100.00
12969;BME280;6549;53.128;8.182;2022-10-20T07:36:44;101493.09;;;7.09;100.00
12969;BME280;6549;53.128;8.182;2022-10-20T07:39:45;101485.19;;;7.32;100.00
12969;BME280;6549;53.128;8.182;2022-10-20T07:42:45;101475.38;;;7.43;100.00
12969;BME280;6549;53.128;8.182;2022-10-20T07:45:45;101467.00;;;7.63;100.00
12969;BME280;6549;53.128;8.182;2022-10-20T07:48:46;101480.00;;;7.54;100.00
12969;BME280;6549;53.128;8.182;2022-10-20T07:51:46;101479.53;;;7.64;100.00
12969;BME280;6549;53.128;8.182;2022-10-20T07:54:49;101470.53;;;7.64;100.00
12969;BME280;6549;53.128;8.182;2022-10-20T07:57:50;101475.22;;;7.79;100.00
12969;BME280;6549;53.128;8.182;2022-10-20T08:00:50;101477.53;;;8.21;100.00
12969;BME280;6549;53.128;8.182;2022-10-20T08:03:50;101482.13;;;8.17;100.00
12969;BME280;6549;53.128;8.182;2022-10-20T08:06:51;101489.09;;;8.14;100.00
12969;BME280;6549;53.128;8.182;2022-10-20T08:09:51;101484.03;;;8.44;100.00
12969;BME280;6549;53.128;8.182;2022-10-20T08:12:51;101482.31;;;8.86;100.00
12969;BME280;6549;53.128;8.182;2022-10-20T08:15:52;101471.09;;;9.65;100.00
12969;BME280;6549;53.128;8.182;2022-10-20T08:18:53;101472.97;;;9.80;100.00
12969;BME280;6549;53.128;8.182;2022-10-20T08:21:53;101471.84;;;9.42;100.00
12969;BME280;6549;53.128;8.182;2022-10-20T08:24:54;101469.00;;;9.20;100.00
12969;BME280;6549;53.128;8.182;2022-10-20T08:27:54;101463.88;;;9.57;100.00
12969;BME280;6549;53.128;8.182;2022-10-20T08:30:54;101471.38;;;9.98;100.00
12969;BME280;6549;53.128;8.182;2022-10-20T08:33:55;101472.34;;;10.09;100.00
12969;BME280;6549;53.128;8.182;2022-10-20T08:36:56;101461.41;;;9.52;100.00
12969;BME280;6549;53.128;8.182;2022-10-20T08:39:56;101456.94;;;9.24;100.00
12969;BME280;6549;53.128;8.182;2022-10-20T08:42:56;101443.28;;;9.47;100.00
12969;BME280;6549;53.128;8.182;2022-10-20T08:45:57;101427.34;;;9.72;100.00
12969;BME280;6549;53.128;8.182;2022-10-20T08:48:58;101440.63;;;9.70;100.00
12969;BME280;6549;53.128;8.182;2022-10-20T08:51:59;101427.78;;;9.35;100.00
12969;BME280;6549;53.128;8.182;2022-10-20T08:55:02;101417.47;;;9.29;100.00
12969;BME280;6549;53.128;8.182;2022-10-20T08:58:06;101409.47;;;9.20;100.00
12969;BME280;6549;53.128;8.182;2022-10-20T09:01:15;101404.03;;;9.24;100.00
12969;BME280;6549;53.128;8.182;2022-10-20T09:07:32;101409.28;;;9.52;100.00
12969;BME280;6549;53.128;8.182;2022-10-20T09:10:35;101399.91;;;9.53;100.00
12969;BME280;6549;53.128;8.182;2022-10-20T09:13:36;101397.16;;;9.72;100.00
12969;BME280;6549;53.128;8.182;2022-10-20T09:16:39;101403.03;;;9.51;100.00
12969;BME280;6549;53.128;8.182;2022-10-20T09:19:42;101405.28;;;9.45;100.00
12969;BME280;6549;53.128;8.182;2022-10-20T09:22:46;101396.13;;;9.61;100.00
12969;BME280;6549;53.128;8.182;2022-10-20T09:25:48;101398.47;;;9.59;100.00
12969;BME280;6549;53.128;8.182;2022-10-20T09:28:49;101401.56;;;9.57;100.00
12969;BME280;6549;53.128;8.182;2022-10-20T09:31:52;101396.94;;;9.61;100.00
12969;BME280;6549;53.128;8.182;2022-10-20T09:35:14;101399.59;;;9.77;100.00
12969;BME280;6549;53.128;8.182;2022-10-20T09:38:19;101388.16;;;9.94;100.00
12969;BME280;6549;53.128;8.182;2022-10-20T09:41:26;101376.81;;;10.18;100.00
12969;BME280;6549;53.128;8.182;2022-10-20T09:44:30;101381.69;;;10.55;100.00
12969;BME280;6549;53.128;8.182;2022-10-20T09:47:32;101363.53;;;10.73;100.00
12969;BME280;6549;53.128;8.182;2022-10-20T09:50:38;101348.69;;;11.11;100.00
12969;BME280;6549;53.128;8.182;2022-10-20T09:53:50;101348.00;;;11.17;100.00
12969;BME280;6549;53.128;8.182;2022-10-20T09:56:52;101353.53;;;11.21;100.00
12969;BME280;6549;53.128;8.182;2022-10-20T09:59:53;101356.41;;;11.32;100.00
12969;BME280;6549;53.128;8.182;2022-10-20T10:03:09;101340.16;;;11.19;100.00
12969;BME280;6549;53.128;8.182;2022-10-20T10:09:33;101336.72;;;11.30;100.00
12969;BME280;6549;53.128;8.182;2022-10-20T10:12:34;101348.72;;;11.48;100.00
12969;BME280;6549;53.128;8.182;2022-10-20T10:15:36;101336.13;;;11.47;100.00
12969;BME280;6549;53.128;8.182;2022-10-20T10:18:37;101311.16;;;11.66;100.00
12969;BME280;6549;53.128;8.182;2022-10-20T10:21:43;101322.34;;;11.80;100.00
12969;BME280;6549;53.128;8.182;2022-10-20T10:24:45;101314.69;;;12.03;100.00
12969;BME280;6549;53.128;8.182;2022-10-20T10:28:03;101291.97;;;12.21;100.00
12969;BME280;6549;53.128;8.182;2022-10-20T10:37:15;101285.91;;;12.63;100.00
12969;BME280;6549;53.128;8.182;2022-10-20T10:40:19;101269.06;;;12.78;100.00
12969;BME280;6549;53.128;8.182;2022-10-20T10:46:52;101275.00;;;12.87;100.00
12969;BME280;6549;53.128;8.182;2022-10-20T10:50:07;101263.91;;;12.73;100.00
12969;BME280;6549;53.128;8.182;2022-10-20T10:59:42;101248.72;;;13.22;100.00
12969;BME280;6549;53.128;8.182;2022-10-20T11:03:00;101248.31;;;13.20;100.00
12969;BME280;6549;53.128;8.182;2022-10-20T11:09:50;101239.09;;;12.73;100.00
12969;BME280;6549;53.128;8.182;2022-10-20T11:13:11;101229.53;;;12.53;100.00
12969;BME280;6549;53.128;8.182;2022-10-20T11:16:36;101226.06;;;12.67;100.00
12969;BME280;6549;53.128;8.182;2022-10-20T11:20:08;101228.50;;;12.79;100.00
12969;BME280;6549;53.128;8.182;2022-10-20T11:27:17;101209.56;;;12.77;100.00
12969;BME280;6549;53.128;8.182;2022-10-20T11:30:19;101206.44;;;12.79;100.00
12969;BME280;6549;53.128;8.182;2022-10-20T11:33:22;101195.72;;;12.56;100.00
12969;BME280;6549;53.128;8.182;2022-10-20T11:36:31;101189.38;;;12.52;100.00
12969;BME280;6549;53.128;8.182;2022-10-20T11:39:41;101187.81;;;12.51;100.00
12969;BME280;6549;53.128;8.182;2022-10-20T11:42:53;101196.50;;;12.56;100.00
12969;BME280;6549;53.128;8.182;2022-10-20T11:46:03;101195.34;;;12.65;100.00
12969;BME280;6549;53.128;8.182;2022-10-20T11:49:05;101189.41;;;12.55;100.00
12969;BME280;6549;53.128;8.182;2022-10-20T11:52:32;101182.69;;;12.53;100.00
12969;BME280;6549;53.128;8.182;2022-10-20T11:59:06;101165.81;;;12.72;100.00
12969;BME280;6549;53.128;8.182;2022-10-20T12:12:02;101132.34;;;12.81;100.00
12969;BME280;6549;53.128;8.182;2022-10-20T12:15:23;101145.72;;;12.68;100.00
12969;BME280;6549;53.128;8.182;2022-10-20T12:18:32;101155.53;;;12.62;100.00
12969;BME280;6549;53.128;8.182;2022-10-20T12:25:37;101154.50;;;13.13;100.00
12969;BME280;6549;53.128;8.182;2022-10-20T12:28:40;101145.06;;;13.31;100.00
12969;BME280;6549;53.128;8.182;2022-10-20T12:38:23;101122.88;;;13.84;100.00
12969;BME280;6549;53.128;8.182;2022-10-20T12:41:30;101135.53;;;13.78;100.00
12969;BME280;6549;53.128;8.182;2022-10-20T12:44:42;101139.50;;;13.70;100.00
12969;BME280;6549;53.128;8.182;2022-10-20T12:47:52;101141.03;;;13.78;100.00
12969;BME280;6549;53.128;8.182;2022-10-20T12:51:01;101140.28;;;13.67;100.00
12969;BME280;6549;53.128;8.182;2022-10-20T12:54:25;101131.19;;;13.63;100.00
12969;BME280;6549;53.128;8.182;2022-10-20T12:57:35;101137.91;;;13.66;100.00
12969;BME280;6549;53.128;8.182;2022-10-20T13:03:50;101129.22;;;13.74;100.00
12969;BME280;6549;53.128;8.182;2022-10-20T13:06:51;101140.69;;;13.62;100.00
12969;BME280;6549;53.128;8.182;2022-10-20T13:09:55;101143.44;;;13.55;100.00
12969;BME280;6549;53.128;8.182;2022-10-20T13:16:01;101133.97;;;13.60;100.00
12969;BME280;6549;53.128;8.182;2022-10-20T13:19:05;101134.38;;;13.47;100.00
12969;BME280;6549;53.128;8.182;2022-10-20T13:25:39;101126.09;;;13.37;100.00
12969;BME280;6549;53.128;8.182;2022-10-20T13:28:45;101115.84;;;13.48;100.00
12969;BME280;6549;53.128;8.182;2022-10-20T13:31:55;101113.88;;;13.45;100.00
12969;BME280;6549;53.128;8.182;2022-10-20T13:35:26;101115.84;;;13.34;100.00
12969;BME280;6549;53.128;8.182;2022-10-20T13:38:37;101115.06;;;13.37;100.00
12969;BME280;6549;53.128;8.182;2022-10-20T13:44:55;101101.25;;;13.37;100.00
12969;BME280;6549;53.128;8.182;2022-10-20T13:51:23;101099.28;;;13.34;100.00
12969;BME280;6549;53.128;8.182;2022-10-20T13:54:27;101096.13;;;13.42;100.00
12969;BME280;6549;53.128;8.182;2022-10-20T13:57:30;101094.16;;;13.29;100.00
12969;BME280;6549;53.128;8.182;2022-10-20T14:00:32;101085.88;;;13.32;100.00
12969;BME280;6549;53.128;8.182;2022-10-20T14:03:45;101078.44;;;13.19;100.00
12969;BME280;6549;53.128;8.182;2022-10-20T14:06:46;101086.69;;;13.12;100.00
12969;BME280;6549;53.128;8.182;2022-10-20T14:09:56;101097.75;;;13.19;100.00
12969;BME280;6549;53.128;8.182;2022-10-20T14:12:57;101106.78;;;13.19;100.00
12969;BME280;6549;53.128;8.182;2022-10-20T14:16:03;101110.72;;;13.15;100.00
12969;BME280;6549;53.128;8.182;2022-10-20T14:19:07;101117.03;;;13.04;100.00
12969;BME280;6549;53.128;8.182;2022-10-20T14:22:18;101115.00;;;12.73;100.00
12969;BME280;6549;53.128;8.182;2022-10-20T14:25:23;101116.97;;;12.66;100.00
12969;BME280;6549;53.128;8.182;2022-10-20T14:28:24;101107.13;;;12.61;100.00
12969;BME280;6549;53.128;8.182;2022-10-20T14:31:28;101107.88;;;12.47;100.00
12969;BME280;6549;53.128;8.182;2022-10-20T14:34:35;101097.97;;;12.39;100.00
12969;BME280;6549;53.128;8.182;2022-10-20T14:37:40;101100.72;;;12.36;100.00
12969;BME280;6549;53.128;8.182;2022-10-20T14:40:55;101097.91;;;12.22;100.00
12969;BME280;6549;53.128;8.182;2022-10-20T14:44:00;101095.56;;;12.20;100.00
12969;BME280;6549;53.128;8.182;2022-10-20T14:47:02;101098.28;;;12.13;100.00
12969;BME280;6549;53.128;8.182;2022-10-20T14:50:05;101100.63;;;12.07;100.00
12969;BME280;6549;53.128;8.182;2022-10-20T14:56:23;101107.31;;;12.03;100.00
12969;BME280;6549;53.128;8.182;2022-10-20T14:59:29;101092.75;;;12.09;100.00
12969;BME280;6549;53.128;8.182;2022-10-20T15:02:40;101092.75;;;12.06;100.00
12969;BME280;6549;53.128;8.182;2022-10-20T15:05:42;101081.72;;;11.99;100.00
12969;BME280;6549;53.128;8.182;2022-10-20T15:08:52;101074.59;;;11.94;100.00
12969;BME280;6549;53.128;8.182;2022-10-20T15:11:54;101061.94;;;11.83;100.00
12969;BME280;6549;53.128;8.182;2022-10-20T15:18:13;101055.25;;;11.80;100.00
12969;BME280;6549;53.128;8.182;2022-10-20T15:21:14;101038.69;;;11.73;100.00
12969;BME280;6549;53.128;8.182;2022-10-20T15:24:14;101053.28;;;11.77;100.00
12969;BME280;6549;53.128;8.182;2022-10-20T15:27:16;101049.28;;;11.71;100.00
12969;BME280;6549;53.128;8.182;2022-10-20T15:30:18;101047.38;;;11.75;100.00
12969;BME280;6549;53.128;8.182;2022-10-20T15:33:19;101032.06;;;11.81;100.00
12969;BME280;6549;53.128;8.182;2022-10-20T15:36:22;101038.63;;;11.66;100.00
12969;BME280;6549;53.128;8.182;2022-10-20T15:39:27;101034.28;;;11.58;100.00
12969;BME280;6549;53.128;8.182;2022-10-20T15:42:27;101033.09;;;11.59;100.00
12969;BME280;6549;53.128;8.182;2022-10-20T15:45:33;101023.22;;;11.51;100.00
12969;BME280;6549;53.128;8.182;2022-10-20T15:48:34;101018.53;;;11.55;100.00
12969;BME280;6549;53.128;8.182;2022-10-20T15:51:35;101027.53;;;11.52;100.00
12969;BME280;6549;53.128;8.182;2022-10-20T15:54:36;101016.19;;;11.57;100.00
12969;BME280;6549;53.128;8.182;2022-10-20T15:57:36;101001.97;;;11.44;100.00
12969;BME280;6549;53.128;8.182;2022-10-20T16:00:37;100998.41;;;11.44;100.00
12969;BME280;6549;53.128;8.182;2022-10-20T16:03:37;100976.84;;;11.49;100.00
12969;BME280;6549;53.128;8.182;2022-10-20T16:06:42;100989.78;;;11.42;100.00
12969;BME280;6549;53.128;8.182;2022-10-20T16:09:42;100987.38;;;11.37;100.00
12969;BME280;6549;53.128;8.182;2022-10-20T16:12:43;100988.63;;;11.50;100.00
12969;BME280;6549;53.128;8.182;2022-10-20T16:15:43;100988.19;;;11.41;100.00
12969;BME280;6549;53.128;8.182;2022-10-20T16:18:43;100997.97;;;11.35;100.00
12969;BME280;6549;53.128;8.182;2022-10-20T16:21:44;100977.16;;;11.37;100.00
12969;BME280;6549;53.128;8.182;2022-10-20T16:24:47;100979.88;;;11.30;100.00
12969;BME280;6549;53.128;8.182;2022-10-20T16:27:48;100981.81;;;11.26;100.00
12969;BME280;6549;53.128;8.182;2022-10-20T16:30:48;100973.91;;;11.21;100.00
12969;BME280;6549;53.128;8.182;2022-10-20T16:33:48;100979.38;;;11.10;100.00
12969;BME280;6549;53.128;8.182;2022-10-20T16:36:50;100975.84;;;11.13;100.00
12969;BME280;6549;53.128;8.182;2022-10-20T16:39:50;100973.47;;;11.15;100.00
12969;BME280;6549;53.128;8.182;2022-10-20T16:42:50;100962.47;;;11.12;100.00
12969;BME280;6549;53.128;8.182;2022-10-20T16:45:51;100959.31;;;11.06;100.00
12969;BME280;6549;53.128;8.182;2022-10-20T16:48:51;100965.63;;;11.10;100.00
12969;BME280;6549;53.128;8.182;2022-10-20T16:51:52;100950.72;;;11.15;100.00
12969;BME280;6549;53.128;8.182;2022-10-20T16:54:52;100944.44;;;11.21;100.00
12969;BME280;6549;53.128;8.182;2022-10-20T16:57:52;100940.53;;;11.19;100.00
12969;BME280;6549;53.128;8.182;2022-10-20T17:03:58;100948.34;;;11.13;100.00
12969;BME280;6549;53.128;8.182;2022-10-20T17:06:58;100940.88;;;11.10;100.00
12969;BME280;6549;53.128;8.182;2022-10-20T17:09:58;100937.69;;;11.08;100.00
12969;BME280;6549;53.128;8.182;2022-10-20T17:12:59;100919.22;;;11.05;100.00
12969;BME280;6549;53.128;8.182;2022-10-20T17:16:04;100912.94;;;11.08;100.00
12969;BME280;6549;53.128;8.182;2022-10-20T17:19:05;100918.81;;;11.07;100.00
12969;BME280;6549;53.128;8.182;2022-10-20T17:22:05;100918.81;;;11.03;100.00
12969;BME280;6549;53.128;8.182;2022-10-20T17:25:06;100919.16;;;10.98;100.00
12969;BME280;6549;53.128;8.182;2022-10-20T17:28:06;100921.97;;;11.02;100.00
12969;BME280;6549;53.128;8.182;2022-10-20T17:31:09;100931.38;;;11.01;100.00
12969;BME280;6549;53.128;8.182;2022-10-20T17:34:09;100923.13;;;10.97;100.00
12969;BME280;6549;53.128;8.182;2022-10-20T17:37:10;100923.84;;;10.91;100.00
12969;BME280;6549;53.128;8.182;2022-10-20T17:40:10;100930.94;;;10.92;100.00
12969;BME280;6549;53.128;8.182;2022-10-20T17:43:10;100931.38;;;10.97;100.00